Time;durP1;ratioP1;P1;durP2;ratioP2;P2;SDS_P1;SDS_P2;PMS_P1;PMS_P2;Temp;Humidity;BMP_temperature;BMP_pressure;BME280_temperature;BME280_humidity;BME280_pressure;Samples;Min_cycle;Max_cycle;Signal;HPM_P1;HPM_P2
2023/10/24 00:01:33;;;;;;;3.72;2.28;;;20.30;55.50;;;;;;5061177;28;20029;-57
2023/10/24 00:03:59;;;;;;;2.92;2.30;;;20.30;55.50;;;;;;5059395;28;20394;-56
2023/10/24 00:06:25;;;;;;;2.78;2.10;;;20.30;55.50;;;;;;5079136;28;20107;-58
2023/10/24 00:08:50;;;;;;;2.63;2.10;;;20.30;55.50;;;;;;5068689;28;20119;-55
2023/10/24 00:11:16;;;;;;;3.20;2.10;;;20.30;55.60;;;;;;5064564;28;20539;-58
2023/10/24 00:13:42;;;;;;;2.58;2.15;;;20.30;55.60;;;;;;5058632;28;20027;-57
2023/10/24 00:16:08;;;;;;;2.60;2.10;;;20.30;55.60;;;;;;5053562;28;20344;-55
2023/10/24 00:18:34;;;;;;;2.78;1.67;;;20.30;55.60;;;;;;5066639;28;20029;-56
2023/10/24 00:20:59;;;;;;;2.70;1.83;;;20.30;55.60;;;;;;5070165;28;20433;-58
2023/10/24 00:23:25;;;;;;;1.98;1.63;;;20.30;55.60;;;;;;5061496;28;20070;-55
2023/10/24 00:25:51;;;;;;;2.25;1.70;;;20.30;55.60;;;;;;5060602;28;20032;-56
2023/10/24 00:28:17;;;;;;;2.28;1.85;;;20.30;55.60;;;;;;5064892;28;20035;-57
2023/10/24 00:30:43;;;;;;;2.35;1.90;;;20.30;55.60;;;;;;5046577;28;20024;-54
2023/10/24 00:33:09;;;;;;;2.53;1.60;;;20.30;55.60;;;;;;5046976;28;20037;-57
2023/10/24 00:35:35;;;;;;;2.40;1.80;;;20.30;55.60;;;;;;5047269;28;20044;-56
2023/10/24 00:38:00;;;;;;;2.20;1.60;;;20.30;55.60;;;;;;5049146;28;20091;-59
2023/10/24 00:40:26;;;;;;;2.45;1.67;;;20.30;55.60;;;;;;5060229;28;20043;-57
2023/10/24 00:42:52;;;;;;;2.58;1.98;;;20.30;55.60;;;;;;5067424;28;20410;-58
2023/10/24 00:45:18;;;;;;;1.65;1.55;;;20.30;55.60;;;;;;5069064;28;20028;-57
2023/10/24 00:47:47;;;;;;;1.75;1.50;;;20.30;55.60;;;;;;5068471;28;20099;-56
2023/10/24 00:50:13;;;;;;;1.75;1.35;;;20.30;55.60;;;;;;5064260;28;20025;-58
2023/10/24 00:52:42;;;;;;;2.20;1.77;;;20.30;55.70;;;;;;5082530;28;20097;-54
2023/10/24 00:55:08;;;;;;;1.95;1.63;;;20.30;55.70;;;;;;5084400;28;20052;-55
2023/10/24 00:57:35;;;;;;;3.00;1.70;;;20.30;55.70;;;;;;5074877;28;20028;-58
2023/10/24 01:00:02;;;;;;;2.90;1.65;;;20.30;55.70;;;;;;5068153;28;20033;-57
2023/10/24 01:02:28;;;;;;;2.72;1.65;;;20.30;55.70;;;;;;5053276;28;20033;-56
2023/10/24 01:04:54;;;;;;;2.13;1.40;;;20.30;55.80;;;;;;5067647;28;20305;-56
2023/10/24 01:07:20;;;;;;;3.63;2.00;;;20.30;55.80;;;;;;5071242;28;20032;-60
2023/10/24 01:09:46;;;;;;;2.20;1.60;;;20.30;55.80;;;;;;5070384;28;20021;-58
2023/10/24 01:12:12;;;;;;;2.22;1.50;;;20.30;55.80;;;;;;5065928;28;20111;-58
2023/10/24 01:14:40;;;;;;;1.60;1.27;;;20.30;55.80;;;;;;5063269;28;20059;-54
2023/10/24 01:17:13;;;;;;;2.22;1.55;;;20.30;55.80;;;;;;5046471;28;20039;-54
2023/10/24 01:19:39;;;;;;;1.75;1.23;;;20.30;55.90;;;;;;5066743;28;20046;-58
2023/10/24 01:22:05;;;;;;;2.97;1.60;;;20.30;55.80;;;;;;5072150;28;20025;-55
2023/10/24 01:24:31;;;;;;;1.30;1.20;;;20.30;55.90;;;;;;5067219;28;20447;-55
2023/10/24 01:26:57;;;;;;;2.70;1.60;;;20.30;55.90;;;;;;5070645;28;20060;-56
2023/10/24 01:29:23;;;;;;;1.55;1.30;;;20.20;55.90;;;;;;5068173;28;20017;-58
2023/10/24 01:31:49;;;;;;;2.30;1.52;;;20.30;55.90;;;;;;5071389;28;20305;-57
2023/10/24 01:34:15;;;;;;;3.28;1.80;;;20.30;55.90;;;;;;5069657;28;20098;-54
2023/10/24 01:36:41;;;;;;;1.98;1.45;;;20.20;55.90;;;;;;5063498;28;20118;-55
2023/10/24 01:39:07;;;;;;;1.70;1.20;;;20.20;55.90;;;;;;5051547;28;20360;-56
2023/10/24 01:41:34;;;;;;;1.23;1.13;;;20.20;55.90;;;;;;5066676;28;20039;-55
2023/10/24 01:44:00;;;;;;;1.63;1.20;;;20.30;55.90;;;;;;5050617;28;20029;-55
2023/10/24 01:46:26;;;;;;;2.05;1.52;;;20.20;55.90;;;;;;5064872;28;20047;-57
2023/10/24 01:48:52;;;;;;;2.13;1.20;;;20.30;55.90;;;;;;5071741;28;20103;-57
2023/10/24 01:51:19;;;;;;;2.05;1.52;;;20.30;55.90;;;;;;5072681;28;20032;-57
2023/10/24 01:53:46;;;;;;;1.83;1.40;;;20.20;55.90;;;;;;5049361;28;20415;-57
2023/10/24 01:56:12;;;;;;;1.55;1.10;;;20.20;55.90;;;;;;5056008;28;20044;-59
2023/10/24 01:58:39;;;;;;;1.67;1.20;;;20.30;56.00;;;;;;5064459;28;20135;-58
2023/10/24 02:01:06;;;;;;;1.27;1.10;;;20.20;55.90;;;;;;5040484;28;20111;-59
2023/10/24 02:03:33;;;;;;;2.95;1.33;;;20.30;56.00;;;;;;5087731;28;20080;-58
2023/10/24 02:05:59;;;;;;;1.83;1.17;;;20.30;56.00;;;;;;5063191;28;20023;-58
2023/10/24 02:08:25;;;;;;;1.52;1.10;;;20.20;55.90;;;;;;5063383;28;20042;-60
2023/10/24 02:10:51;;;;;;;1.60;1.13;;;20.20;55.90;;;;;;5077390;28;20308;-57
2023/10/24 02:13:17;;;;;;;2.10;1.23;;;20.20;55.90;;;;;;5069796;28;20036;-58
2023/10/24 02:15:43;;;;;;;1.67;1.02;;;20.30;56.00;;;;;;5064786;28;20041;-56
2023/10/24 02:18:09;;;;;;;1.85;1.00;;;20.20;55.90;;;;;;5074407;28;20044;-58
2023/10/24 02:20:37;;;;;;;5.18;1.23;;;20.20;55.90;;;;;;5081669;28;20052;-57
2023/10/24 02:23:03;;;;;;;1.58;1.10;;;20.20;55.90;;;;;;5066345;28;20052;-57
2023/10/24 02:25:29;;;;;;;1.48;1.08;;;20.20;55.90;;;;;;5065050;28;20056;-56
2023/10/24 02:27:55;;;;;;;1.23;1.02;;;20.20;55.90;;;;;;5065623;28;20039;-57
2023/10/24 02:30:21;;;;;;;1.15;1.05;;;20.20;55.80;;;;;;5082594;28;20021;-56
2023/10/24 02:32:49;;;;;;;1.95;0.95;;;20.20;55.80;;;;;;5081823;28;20086;-57
2023/10/24 02:35:15;;;;;;;1.67;1.13;;;20.20;55.80;;;;;;5062326;28;20051;-57
2023/10/24 02:37:41;;;;;;;1.02;0.80;;;20.20;55.80;;;;;;5080899;28;20048;-56
2023/10/24 02:40:10;;;;;;;1.52;1.08;;;20.20;55.80;;;;;;5078045;28;20029;-55
2023/10/24 02:42:36;;;;;;;1.20;0.95;;;20.20;55.80;;;;;;5081342;28;20024;-57
2023/10/24 02:45:03;;;;;;;1.73;0.80;;;20.20;55.80;;;;;;5079919;28;20056;-59
2023/10/24 02:47:29;;;;;;;0.85;0.80;;;20.20;55.70;;;;;;5064191;28;20340;-58
2023/10/24 02:49:55;;;;;;;1.45;0.98;;;20.20;55.70;;;;;;5058398;28;20039;-60
2023/10/24 02:52:21;;;;;;;1.13;0.90;;;20.20;55.60;;;;;;5079490;28;20016;-54
2023/10/24 02:54:47;;;;;;;1.38;0.88;;;20.20;55.60;;;;;;5079961;28;20101;-55
2023/10/24 02:57:13;;;;;;;1.30;0.90;;;20.20;55.60;;;;;;5078325;28;20119;-56
2023/10/24 02:59:39;;;;;;;1.23;0.73;;;20.20;55.60;;;;;;5083658;28;20142;-57
2023/10/24 03:02:05;;;;;;;1.10;1.00;;;20.20;55.50;;;;;;5063060;28;20423;-58
2023/10/24 03:04:30;;;;;;;0.65;0.55;;;20.20;55.50;;;;;;5084268;28;20032;-54
2023/10/24 03:06:56;;;;;;;1.23;0.80;;;20.20;55.50;;;;;;5076092;28;20028;-60
2023/10/24 03:09:22;;;;;;;1.67;1.17;;;20.20;55.40;;;;;;5078846;28;20028;-57
2023/10/24 03:11:48;;;;;;;1.38;0.70;;;20.20;55.40;;;;;;5082460;28;20024;-54
2023/10/24 03:14:14;;;;;;;1.20;0.80;;;20.20;55.40;;;;;;5086237;28;20056;-55
2023/10/24 03:16:40;;;;;;;1.23;0.80;;;20.20;55.40;;;;;;5079043;28;20439;-59
2023/10/24 03:19:06;;;;;;;0.80;0.55;;;20.20;55.40;;;;;;5058945;28;20347;-58
2023/10/24 03:21:32;;;;;;;1.40;0.73;;;20.20;55.40;;;;;;5060896;28;20032;-56
2023/10/24 03:23:58;;;;;;;1.08;0.70;;;20.20;55.40;;;;;;5086077;28;20042;-57
2023/10/24 03:26:24;;;;;;;0.52;0.52;;;20.20;55.30;;;;;;5066469;28;20027;-58
2023/10/24 03:28:50;;;;;;;1.15;0.90;;;20.20;55.30;;;;;;5060274;28;20068;-57
2023/10/24 03:31:16;;;;;;;0.77;0.70;;;20.20;55.40;;;;;;5062424;28;20040;-58
2023/10/24 03:33:41;;;;;;;1.00;0.88;;;20.20;55.30;;;;;;5061283;28;20408;-54
2023/10/24 03:36:14;;;;;;;1.30;0.95;;;20.20;55.90;;;;;;5061509;28;20048;-58
2023/10/24 03:38:40;;;;;;;0.98;0.88;;;20.20;55.30;;;;;;5083082;28;20395;-58
2023/10/24 03:41:07;;;;;;;0.90;0.70;;;20.20;55.30;;;;;;5083307;28;20112;-57
2023/10/24 03:43:34;;;;;;;1.52;0.85;;;20.20;55.20;;;;;;5081720;28;20103;-57
2023/10/24 03:46:07;;;;;;;0.85;0.60;;;20.20;55.20;;;;;;5079889;28;20569;-55
2023/10/24 03:48:33;;;;;;;1.15;0.90;;;20.20;55.20;;;;;;5082490;28;20030;-59
2023/10/24 03:51:00;;;;;;;0.65;0.63;;;20.20;55.80;;;;;;5081978;28;20404;-55
2023/10/24 03:53:27;;;;;;;0.98;0.75;;;20.20;55.20;;;;;;5080171;28;20033;-55
2023/10/24 03:55:59;;;;;;;1.15;0.55;;;20.20;55.20;;;;;;5078729;28;20398;-55
2023/10/24 03:58:26;;;;;;;0.60;0.60;;;20.20;55.10;;;;;;5078817;28;20036;-56
2023/10/24 04:00:52;;;;;;;1.13;0.60;;;20.20;55.10;;;;;;5079139;28;20131;-57
2023/10/24 04:03:19;;;;;;;1.00;0.70;;;20.20;55.10;;;;;;5076082;28;20052;-58
2023/10/24 04:05:45;;;;;;;1.08;0.70;;;20.20;55.10;;;;;;5060236;28;20521;-58
2023/10/24 04:08:11;;;;;;;0.88;0.60;;;20.20;55.00;;;;;;5075278;28;20103;-59
2023/10/24 04:10:37;;;;;;;0.90;0.63;;;20.20;55.00;;;;;;5064869;28;20028;-56
2023/10/24 04:13:03;;;;;;;1.00;0.70;;;20.10;54.90;;;;;;5067634;28;20308;-56
2023/10/24 04:15:29;;;;;;;1.10;0.60;;;20.20;54.90;;;;;;5067350;28;20050;-55
2023/10/24 04:17:55;;;;;;;0.77;0.70;;;20.20;54.90;;;;;;5074319;28;20020;-54
2023/10/24 04:20:21;;;;;;;0.55;0.52;;;20.20;54.90;;;;;;5085066;28;20067;-56
2023/10/24 04:22:47;;;;;;;1.02;0.57;;;20.20;54.80;;;;;;5088005;28;20103;-57
2023/10/24 04:25:13;;;;;;;0.95;0.70;;;20.10;54.80;;;;;;5086594;28;20040;-58
2023/10/24 04:27:39;;;;;;;0.40;0.40;;;20.20;54.80;;;;;;5081395;28;20024;-57
2023/10/24 04:30:09;;;;;;;0.45;0.40;;;20.10;54.70;;;;;;5080372;28;20997;-55
2023/10/24 04:32:35;;;;;;;0.98;0.60;;;20.20;54.70;;;;;;5073982;28;20051;-58
2023/10/24 04:35:02;;;;;;;0.30;0.30;;;20.20;54.70;;;;;;5076433;28;20052;-55
2023/10/24 04:37:27;;;;;;;0.82;0.50;;;20.20;54.70;;;;;;5077351;28;20016;-57
2023/10/24 04:39:54;;;;;;;0.32;0.30;;;20.20;54.60;;;;;;5072997;28;20042;-56
2023/10/24 04:42:21;;;;;;;0.60;0.40;;;20.20;54.60;;;;;;5075937;28;20158;-55
2023/10/24 04:44:47;;;;;;;0.90;0.70;;;20.10;54.50;;;;;;5080247;28;20420;-58
2023/10/24 04:47:13;;;;;;;0.50;0.50;;;20.20;54.50;;;;;;5075249;28;20022;-57
2023/10/24 04:49:39;;;;;;;0.57;0.50;;;20.10;54.40;;;;;;5080016;28;20066;-55
2023/10/24 04:52:04;;;;;;;1.17;0.50;;;20.20;54.50;;;;;;5072834;28;20107;-60
2023/10/24 04:54:30;;;;;;;1.95;0.60;;;20.20;54.90;;;;;;5076934;28;20028;-57
2023/10/24 04:56:58;;;;;;;0.73;0.40;;;20.20;54.40;;;;;;5079226;28;20056;-59
2023/10/24 04:59:24;;;;;;;0.85;0.60;;;20.20;54.40;;;;;;5074012;28;20181;-56
2023/10/24 05:01:50;;;;;;;0.70;0.50;;;20.10;54.30;;;;;;5082425;28;20510;-58
2023/10/24 05:04:15;;;;;;;0.50;0.50;;;20.10;54.30;;;;;;5074131;28;20032;-57
2023/10/24 05:06:43;;;;;;;0.68;0.60;;;20.20;54.30;;;;;;5081171;28;20161;-58
2023/10/24 05:09:09;;;;;;;0.63;0.40;;;20.10;54.20;;;;;;5061426;28;20044;-57
2023/10/24 05:11:39;;;;;;;0.73;0.68;;;20.10;54.20;;;;;;5082592;28;20028;-56
2023/10/24 05:14:05;;;;;;;0.70;0.50;;;20.10;54.20;;;;;;5071542;28;20032;-57
2023/10/24 05:16:31;;;;;;;0.65;0.50;;;20.10;54.20;;;;;;5072880;28;21248;-57
2023/10/24 05:18:57;;;;;;;0.85;0.63;;;20.10;54.10;;;;;;5075460;28;20028;-58
2023/10/24 05:21:23;;;;;;;0.80;0.63;;;20.10;54.10;;;;;;5078992;28;20032;-57
2023/10/24 05:23:49;;;;;;;0.52;0.52;;;20.10;54.10;;;;;;5079815;28;20027;-59
2023/10/24 05:26:14;;;;;;;0.60;0.43;;;20.10;54.10;;;;;;5070853;28;20031;-57
2023/10/24 05:28:40;;;;;;;0.57;0.40;;;20.10;54.00;;;;;;5074286;28;20070;-54
2023/10/24 05:31:07;;;;;;;0.60;0.50;;;20.10;54.00;;;;;;5073917;28;20174;-58
2023/10/24 05:33:38;;;;;;;0.63;0.60;;;20.10;54.00;;;;;;5078612;28;20072;-57
2023/10/24 05:36:04;;;;;;;0.50;0.50;;;20.10;54.00;;;;;;5076625;28;20379;-58
2023/10/24 05:38:32;;;;;;;1.30;0.50;;;20.10;54.00;;;;;;5082409;28;20020;-53
2023/10/24 05:40:59;;;;;;;0.57;0.50;;;20.10;54.00;;;;;;5073113;28;20115;-57
2023/10/24 05:43:26;;;;;;;0.70;0.50;;;20.10;53.90;;;;;;5074039;28;20194;-58
2023/10/24 05:45:51;;;;;;;0.73;0.60;;;20.10;54.00;;;;;;5074159;28;20032;-58
2023/10/24 05:48:18;;;;;;;0.50;0.50;;;20.10;53.90;;;;;;5055212;28;20513;-55
2023/10/24 05:50:44;;;;;;;0.93;0.63;;;20.10;53.90;;;;;;5074706;28;20025;-58
2023/10/24 05:53:10;;;;;;;0.77;0.57;;;20.10;53.90;;;;;;5074323;28;20063;-57
2023/10/24 05:55:35;;;;;;;0.80;0.55;;;20.10;53.90;;;;;;5074153;28;20076;-57
2023/10/24 05:58:01;;;;;;;0.55;0.50;;;20.10;53.90;;;;;;5078556;28;20067;-56
2023/10/24 06:00:27;;;;;;;1.35;0.73;;;20.10;53.80;;;;;;5080243;28;20035;-59
2023/10/24 06:02:53;;;;;;;0.43;0.40;;;20.10;53.90;;;;;;5074871;28;20469;-57
2023/10/24 06:05:19;;;;;;;0.68;0.60;;;20.10;53.80;;;;;;5077354;28;21750;-60
2023/10/24 06:07:45;;;;;;;0.68;0.60;;;20.10;53.80;;;;;;5071345;28;20036;-58
2023/10/24 06:10:11;;;;;;;0.65;0.60;;;20.10;53.80;;;;;;5075430;28;20021;-56
2023/10/24 06:12:36;;;;;;;0.70;0.70;;;20.10;53.80;;;;;;5076285;28;20031;-59
2023/10/24 06:15:06;;;;;;;0.95;0.60;;;20.10;53.70;;;;;;5058928;28;20048;-58
2023/10/24 06:17:33;;;;;;;0.60;0.47;;;20.10;53.70;;;;;;5069592;28;20419;-57
2023/10/24 06:19:59;;;;;;;0.70;0.57;;;20.10;53.70;;;;;;5071621;28;20482;-54
2023/10/24 06:22:28;;;;;;;0.60;0.50;;;20.00;53.70;;;;;;5080684;28;20028;-55
2023/10/24 06:24:55;;;;;;;0.70;0.50;;;20.10;53.70;;;;;;5084277;28;20039;-57
2023/10/24 06:27:20;;;;;;;0.60;0.55;;;20.10;53.70;;;;;;5079125;28;20028;-56
2023/10/24 06:29:46;;;;;;;0.77;0.43;;;20.10;53.70;;;;;;5072077;28;20032;-58
2023/10/24 06:32:12;;;;;;;0.50;0.50;;;20.10;53.70;;;;;;5074863;28;20032;-59
2023/10/24 06:34:38;;;;;;;0.60;0.40;;;20.00;53.60;;;;;;5071303;28;20369;-60
2023/10/24 06:37:04;;;;;;;0.95;0.45;;;20.10;53.60;;;;;;5077556;28;20043;-57
2023/10/24 06:39:30;;;;;;;1.02;0.47;;;20.00;53.60;;;;;;5048508;28;20020;-54
2023/10/24 06:41:56;;;;;;;0.60;0.50;;;20.10;53.60;;;;;;5070884;28;20057;-59
2023/10/24 06:44:22;;;;;;;0.43;0.43;;;20.10;53.60;;;;;;5070658;28;20044;-56
2023/10/24 06:46:49;;;;;;;0.50;0.50;;;20.10;53.60;;;;;;5074246;28;20056;-58
2023/10/24 06:49:14;;;;;;;0.50;0.50;;;20.10;53.60;;;;;;5075016;28;20096;-58
2023/10/24 06:51:40;;;;;;;0.40;0.40;;;20.10;53.60;;;;;;5071353;28;20447;-61
2023/10/24 06:54:06;;;;;;;0.75;0.50;;;20.10;53.60;;;;;;5071076;28;20082;-60
2023/10/24 06:56:34;;;;;;;0.60;0.50;;;20.00;53.40;;;;;;5077654;28;20043;-55
2023/10/24 06:59:00;;;;;;;0.95;0.50;;;20.10;53.50;;;;;;5078767;28;20020;-59
2023/10/24 07:01:25;;;;;;;0.75;0.50;;;20.10;53.50;;;;;;5078326;28;20070;-58
2023/10/24 07:03:54;;;;;;;0.50;0.50;;;20.00;53.40;;;;;;5077072;28;20832;-58
2023/10/24 07:06:20;;;;;;;0.50;0.50;;;20.00;53.40;;;;;;5075332;28;20024;-59
2023/10/24 07:08:48;;;;;;;0.63;0.50;;;20.00;53.40;;;;;;5074775;28;20089;-55
2023/10/24 07:11:13;;;;;;;1.50;0.57;;;20.10;53.40;;;;;;5070023;28;20440;-55
2023/10/24 07:13:39;;;;;;;0.60;0.50;;;20.00;53.30;;;;;;5071482;28;20017;-55
2023/10/24 07:16:15;;;;;;;0.60;0.50;;;20.10;53.30;;;;;;5078150;28;20347;-59
2023/10/24 07:18:42;;;;;;;0.75;0.43;;;20.00;53.20;;;;;;5076578;28;20410;-54
2023/10/24 07:21:08;;;;;;;0.50;0.40;;;20.00;53.20;;;;;;5086049;28;20099;-57
2023/10/24 07:23:34;;;;;;;0.40;0.38;;;20.00;53.20;;;;;;5084391;28;20099;-59
2023/10/24 07:26:00;;;;;;;0.43;0.40;;;20.00;53.20;;;;;;5084154;28;20103;-57
2023/10/24 07:28:26;;;;;;;0.70;0.50;;;20.00;53.10;;;;;;5074768;28;20510;-56
2023/10/24 07:30:54;;;;;;;1.00;0.50;;;20.00;53.10;;;;;;5066609;28;20443;-58
2023/10/24 07:33:20;;;;;;;0.60;0.38;;;20.00;53.10;;;;;;5082634;28;20049;-58
2023/10/24 07:35:48;;;;;;;0.95;0.50;;;20.00;53.00;;;;;;5073643;28;20031;-55
2023/10/24 07:38:14;;;;;;;2.38;0.40;;;20.00;53.00;;;;;;5072290;28;20423;-57
2023/10/24 07:40:40;;;;;;;0.55;0.45;;;20.00;53.00;;;;;;5078894;28;20125;-58
2023/10/24 07:43:06;;;;;;;0.47;0.32;;;20.00;53.00;;;;;;5070314;28;20114;-58
2023/10/24 07:45:33;;;;;;;0.40;0.40;;;20.00;53.00;;;;;;5070231;28;20028;-58
2023/10/24 07:48:00;;;;;;;0.40;0.40;;;20.00;53.00;;;;;;5069298;28;20082;-56
2023/10/24 07:50:28;;;;;;;0.50;0.40;;;20.00;52.90;;;;;;5073293;28;21594;-58
2023/10/24 07:52:54;;;;;;;0.50;0.40;;;20.00;52.90;;;;;;5072244;28;20036;-58
2023/10/24 07:55:19;;;;;;;1.02;0.30;;;20.00;52.90;;;;;;5071120;28;20033;-57
2023/10/24 07:57:46;;;;;;;0.30;0.30;;;20.00;52.90;;;;;;5075402;28;20063;-58
2023/10/24 08:00:13;;;;;;;2.03;0.50;;;20.00;52.90;;;;;;5073719;28;20086;-54
2023/10/24 08:02:39;;;;;;;0.30;0.30;;;20.00;52.90;;;;;;5074087;28;20028;-58
2023/10/24 08:05:05;;;;;;;2.72;0.43;;;20.00;52.80;;;;;;5058933;28;20035;-60
2023/10/24 08:07:31;;;;;;;0.55;0.40;;;20.00;52.80;;;;;;5072357;28;20024;-58
2023/10/24 08:09:57;;;;;;;0.30;0.30;;;20.00;52.90;;;;;;5083376;28;20458;-59
2023/10/24 08:12:22;;;;;;;1.10;0.47;;;20.00;52.90;;;;;;5084252;28;20035;-57
2023/10/24 08:14:49;;;;;;;0.30;0.30;;;20.00;52.90;;;;;;5081191;28;20029;-58
2023/10/24 08:17:15;;;;;;;0.50;0.40;;;20.00;52.90;;;;;;5082718;28;20029;-57
2023/10/24 08:19:41;;;;;;;0.35;0.30;;;20.00;52.80;;;;;;5080124;28;20089;-58
2023/10/24 08:22:07;;;;;;;0.77;0.40;;;20.00;52.80;;;;;;5081378;28;20032;-59
2023/10/24 08:24:32;;;;;;;0.55;0.50;;;20.00;52.80;;;;;;5081980;28;20065;-57
2023/10/24 08:26:58;;;;;;;0.35;0.30;;;20.00;53.40;;;;;;5084040;28;20044;-56
2023/10/24 08:29:24;;;;;;;1.20;0.40;;;20.00;52.80;;;;;;5083930;28;20051;-60
2023/10/24 08:31:50;;;;;;;0.40;0.32;;;20.00;52.70;;;;;;5083829;28;20038;-57
2023/10/24 08:34:15;;;;;;;0.60;0.40;;;20.00;52.70;;;;;;5076466;28;20055;-59
2023/10/24 08:36:41;;;;;;;0.32;0.32;;;20.00;53.30;;;;;;5082810;28;20445;-58
2023/10/24 08:39:07;;;;;;;0.40;0.30;;;20.00;52.70;;;;;;5083433;28;20032;-57
2023/10/24 08:41:33;;;;;;;1.02;0.50;;;20.00;52.70;;;;;;5081233;28;20358;-57
2023/10/24 08:44:00;;;;;;;0.88;0.50;;;20.00;52.70;;;;;;5083544;28;20024;-56
2023/10/24 08:46:25;;;;;;;0.85;0.50;;;20.00;52.70;;;;;;5083017;28;20403;-58
2023/10/24 08:48:53;;;;;;;0.95;0.68;;;20.00;52.60;;;;;;5078060;28;20043;-55
2023/10/24 08:51:19;;;;;;;0.63;0.40;;;20.00;52.60;;;;;;5083908;28;20028;-58
2023/10/24 08:53:44;;;;;;;0.45;0.40;;;20.10;52.70;;;;;;5083434;28;20028;-58
2023/10/24 08:56:11;;;;;;;0.47;0.38;;;20.00;52.60;;;;;;5081401;28;20454;-55
2023/10/24 08:58:41;;;;;;;0.50;0.40;;;20.10;52.70;;;;;;5085836;28;20116;-59
2023/10/24 09:01:08;;;;;;;0.45;0.45;;;20.10;52.60;;;;;;5085995;28;20038;-55
2023/10/24 09:03:36;;;;;;;0.68;0.60;;;20.10;52.70;;;;;;5085078;28;20047;-55
2023/10/24 09:06:02;;;;;;;0.63;0.47;;;20.10;52.60;;;;;;5086001;28;20111;-58
2023/10/24 09:08:28;;;;;;;0.68;0.50;;;20.10;52.60;;;;;;5078701;28;20035;-58
2023/10/24 09:10:56;;;;;;;0.70;0.60;;;20.10;52.60;;;;;;5073055;28;20028;-57
2023/10/24 09:13:23;;;;;;;0.70;0.60;;;20.10;52.60;;;;;;5086168;28;20032;-55
2023/10/24 09:16:09;;;;;;;0.82;0.57;;;20.10;52.60;;;;;;5089087;28;20048;-58
2023/10/24 09:18:36;;;;;;;1.10;0.50;;;20.10;52.60;;;;;;5078585;28;20017;-58
2023/10/24 09:21:04;;;;;;;0.40;0.40;;;20.10;52.60;;;;;;5091413;28;20101;-57
2023/10/24 09:23:33;;;;;;;0.65;0.52;;;20.10;52.60;;;;;;5086028;28;20165;-55
2023/10/24 09:26:21;;;;;;;0.73;0.57;;;20.10;52.60;;;;;;5085951;28;20144;-60
2023/10/24 09:28:56;;;;;;;0.95;0.60;;;20.10;52.50;;;;;;5088673;28;20043;-57
2023/10/24 09:31:23;;;;;;;0.75;0.50;;;20.10;52.60;;;;;;5084263;28;20488;-57
2023/10/24 09:33:49;;;;;;;0.82;0.63;;;20.10;52.60;;;;;;5085809;28;20059;-56
2023/10/24 09:36:24;;;;;;;0.93;0.63;;;20.10;52.60;;;;;;5083558;28;20454;-58
2023/10/24 09:38:52;;;;;;;0.80;0.60;;;20.10;52.50;;;;;;5084585;28;20123;-56
2023/10/24 09:41:18;;;;;;;1.23;0.70;;;20.10;53.10;;;;;;5083811;28;20032;-55
2023/10/24 09:43:47;;;;;;;1.05;0.70;;;20.10;52.50;;;;;;5083782;28;20392;-58
2023/10/24 09:46:18;;;;;;;0.88;0.68;;;20.20;52.60;;;;;;5083713;28;20043;-58
2023/10/24 09:48:45;;;;;;;0.70;0.55;;;20.20;52.60;;;;;;5081041;28;20035;-56
2023/10/24 09:51:13;;;;;;;0.50;0.50;;;20.20;52.60;;;;;;5085145;28;20380;-54
2023/10/24 09:53:40;;;;;;;0.50;0.50;;;20.20;52.50;;;;;;5089580;28;20067;-57
2023/10/24 09:56:08;;;;;;;0.85;0.70;;;20.20;52.50;;;;;;5084809;28;20153;-55
2023/10/24 09:58:39;;;;;;;0.40;0.40;;;20.20;52.50;;;;;;5086313;28;20150;-58
2023/10/24 10:01:06;;;;;;;0.80;0.60;;;20.20;52.50;;;;;;5085797;28;20032;-57
2023/10/24 10:03:34;;;;;;;1.13;0.65;;;20.20;52.50;;;;;;5084132;28;20462;-56
2023/10/24 10:06:08;;;;;;;1.08;0.70;;;20.20;52.50;;;;;;5079621;28;20028;-59
2023/10/24 10:08:36;;;;;;;0.60;0.55;;;20.20;52.50;;;;;;5071764;28;20085;-55
2023/10/24 10:11:05;;;;;;;0.55;0.52;;;20.20;52.50;;;;;;5073586;28;20028;-52
2023/10/24 10:13:38;;;;;;;0.50;0.50;;;20.20;52.50;;;;;;5079598;28;20052;-56
2023/10/24 10:16:26;;;;;;;0.60;0.47;;;20.20;52.50;;;;;;5073522;28;20043;-61
2023/10/24 10:19:27;;;;;;;0.50;0.50;;;20.30;52.50;;;;;;5071638;28;20488;-57
2023/10/24 10:22:20;;;;;;;0.90;0.50;;;20.30;52.40;;;;;;5061036;28;20044;-57
2023/10/24 10:25:16;;;;;;;0.80;0.60;;;20.30;52.50;;;;;;5081697;28;20043;-58
2023/10/24 10:28:17;;;;;;;1.52;0.50;;;20.30;52.50;;;;;;5077760;28;20108;-62
2023/10/24 10:30:57;;;;;;;0.93;0.55;;;20.20;52.40;;;;;;5045328;28;20037;-57
2023/10/24 10:33:24;;;;;;;1.42;0.60;;;20.30;52.60;;;;;;5072190;28;20351;-58
2023/10/24 10:35:53;;;;;;;0.93;0.43;;;20.30;52.60;;;;;;5054967;28;20102;-57
2023/10/24 10:38:37;;;;;;;0.98;0.52;;;20.30;52.70;;;;;;5076251;28;20048;-58
2023/10/24 10:41:21;;;;;;;0.80;0.50;;;20.30;52.60;;;;;;5073855;28;20388;-58
2023/10/24 10:43:48;;;;;;;0.55;0.50;;;20.40;52.60;;;;;;5068760;28;20230;-56
2023/10/24 10:46:27;;;;;;;1.25;0.50;;;20.40;52.50;;;;;;5058392;28;20432;-58
2023/10/24 10:48:59;;;;;;;0.70;0.52;;;20.40;52.50;;;;;;5075506;28;20040;-57
2023/10/24 10:51:33;;;;;;;0.57;0.40;;;20.40;52.50;;;;;;5075268;28;20043;-57
2023/10/24 10:54:17;;;;;;;1.02;0.50;;;20.40;52.50;;;;;;5075416;28;20043;-58
2023/10/24 10:56:45;;;;;;;0.40;0.40;;;20.40;52.50;;;;;;5074906;28;20058;-52
2023/10/24 10:59:36;;;;;;;0.77;0.60;;;20.50;52.60;;;;;;5074345;28;20110;-58
2023/10/24 11:02:10;;;;;;;0.82;0.50;;;20.50;52.60;;;;;;5070883;28;20131;-58
2023/10/24 11:04:36;;;;;;;0.73;0.55;;;20.50;52.70;;;;;;5070559;28;20423;-57
2023/10/24 11:07:06;;;;;;;0.73;0.50;;;20.50;52.70;;;;;;5074496;28;20036;-57
2023/10/24 11:09:37;;;;;;;4.53;0.60;;;20.50;52.70;;;;;;5075818;28;20066;-58
2023/10/24 11:12:21;;;;;;;1.95;0.73;;;20.50;52.70;;;;;;5071875;28;20371;-59
2023/10/24 11:15:06;;;;;;;2.67;0.70;;;20.60;52.70;;;;;;5070513;28;20028;-57
2023/10/24 11:17:33;;;;;;;1.13;0.70;;;20.60;52.70;;;;;;5072270;28;20048;-56
2023/10/24 11:20:00;;;;;;;2.40;1.35;;;20.60;52.80;;;;;;5052683;28;20037;-55
2023/10/24 11:22:26;;;;;;;1.42;0.70;;;20.60;52.90;;;;;;5072766;28;20039;-54
2023/10/24 11:24:53;;;;;;;0.90;0.50;;;20.60;53.20;;;;;;5077230;28;20074;-58
2023/10/24 11:27:22;;;;;;;2.17;0.45;;;20.70;53.40;;;;;;5077612;28;20043;-55
2023/10/24 11:29:49;;;;;;;1.70;0.70;;;20.70;54.30;;;;;;5071520;28;20040;-55
2023/10/24 11:32:19;;;;;;;0.77;0.70;;;20.70;53.70;;;;;;5071100;28;20466;-55
2023/10/24 11:34:46;;;;;;;1.00;0.73;;;20.60;53.70;;;;;;5072209;28;20056;-56
2023/10/24 11:37:28;;;;;;;0.80;0.60;;;20.70;53.80;;;;;;5028654;28;20186;-59
2023/10/24 11:39:56;;;;;;;1.25;0.60;;;20.70;53.80;;;;;;5071515;28;20024;-57
2023/10/24 11:42:22;;;;;;;1.15;0.70;;;20.70;53.70;;;;;;5069714;28;20123;-57
2023/10/24 11:44:48;;;;;;;1.27;0.57;;;20.70;53.70;;;;;;5072182;28;20120;-56
2023/10/24 11:47:15;;;;;;;1.48;0.60;;;20.70;53.70;;;;;;5072758;28;20028;-56
2023/10/24 11:49:41;;;;;;;1.55;0.70;;;20.60;53.60;;;;;;5073117;28;20392;-54
2023/10/24 11:52:07;;;;;;;1.30;0.60;;;20.70;53.60;;;;;;5074243;28;20028;-56
2023/10/24 11:54:33;;;;;;;0.88;0.50;;;20.60;53.50;;;;;;5074039;28;20043;-58
2023/10/24 11:57:00;;;;;;;0.75;0.60;;;20.70;53.50;;;;;;5072153;28;20134;-56
2023/10/24 11:59:33;;;;;;;0.80;0.50;;;20.70;53.40;;;;;;5070383;28;20089;-58
2023/10/24 12:02:01;;;;;;;1.10;0.90;;;20.70;53.40;;;;;;5072236;28;20063;-55
2023/10/24 12:04:27;;;;;;;0.50;0.40;;;20.70;53.50;;;;;;5070599;28;20032;-55
2023/10/24 12:07:08;;;;;;;1.05;0.50;;;20.70;53.40;;;;;;5071277;28;20028;-54
2023/10/24 12:09:36;;;;;;;0.93;0.60;;;20.70;53.40;;;;;;5071285;28;20032;-57
2023/10/24 12:12:03;;;;;;;0.90;0.60;;;20.70;53.40;;;;;;5070043;28;20071;-56
2023/10/24 12:14:30;;;;;;;0.65;0.60;;;20.70;53.40;;;;;;5072221;28;20060;-55
2023/10/24 12:17:16;;;;;;;0.80;0.50;;;20.70;53.40;;;;;;5051045;28;20048;-55
2023/10/24 12:20:01;;;;;;;1.15;0.50;;;20.80;53.40;;;;;;5071806;28;20029;-57
2023/10/24 12:22:29;;;;;;;1.30;0.70;;;20.70;53.40;;;;;;5067107;28;20082;-56
2023/10/24 12:24:55;;;;;;;0.47;0.47;;;20.80;53.50;;;;;;5071527;28;20317;-56
2023/10/24 12:27:21;;;;;;;1.13;0.70;;;20.80;53.40;;;;;;5064372;28;20052;-55
2023/10/24 12:29:47;;;;;;;0.40;0.40;;;20.80;53.50;;;;;;5071496;28;20067;-55
2023/10/24 12:32:13;;;;;;;0.90;0.50;;;20.90;53.50;;;;;;5072330;28;20357;-56
2023/10/24 12:34:39;;;;;;;1.75;0.68;;;20.90;53.40;;;;;;5069662;28;20060;-57
2023/10/24 12:37:05;;;;;;;0.55;0.40;;;20.90;53.40;;;;;;5075079;28;20032;-54
2023/10/24 12:39:31;;;;;;;1.20;0.38;;;21.00;53.40;;;;;;5072009;28;20312;-58
2023/10/24 12:41:56;;;;;;;1.00;0.60;;;21.00;53.40;;;;;;5071551;28;20028;-53
2023/10/24 12:44:22;;;;;;;0.50;0.50;;;21.00;53.20;;;;;;5074499;28;20086;-55
2023/10/24 12:46:48;;;;;;;0.60;0.40;;;21.10;53.20;;;;;;5073518;28;20030;-57
2023/10/24 12:49:16;;;;;;;0.82;0.47;;;21.10;53.20;;;;;;5086116;28;20054;-53
2023/10/24 12:51:43;;;;;;;1.30;0.60;;;21.20;53.20;;;;;;5071952;28;20452;-58